Time;durP1;ratioP1;P1;durP2;ratioP2;P2;SDS_P1;SDS_P2;PMS_P1;PMS_P2;Temp;Humidity;BMP_temperature;BMP_pressure;BME280_temperature;BME280_humidity;BME280_pressure;Samples;Min_cycle;Max_cycle;Signal;HPM_P1;HPM_P2
2024/01/14 00:02:17;;;;;;;14.32;2.80;;;3.80;99.90;;;;;;5125010;27;20039;-70
2024/01/14 00:04:44;;;;;;;16.90;3.60;;;3.70;99.90;;;;;;5125741;27;20408;-71
2024/01/14 00:07:10;;;;;;;12.57;2.80;;;3.70;99.90;;;;;;5120888;27;20031;-70
2024/01/14 00:09:36;;;;;;;12.45;2.45;;;3.70;99.90;;;;;;5113578;27;20055;-70
2024/01/14 00:12:03;;;;;;;14.95;2.97;;;3.80;99.90;;;;;;5111195;27;20043;-71
2024/01/14 00:14:29;;;;;;;16.52;3.33;;;3.80;99.90;;;;;;5123718;27;20122;-71
2024/01/14 00:16:58;;;;;;;15.15;2.83;;;3.80;99.90;;;;;;5118276;27;20080;-71
2024/01/14 00:19:24;;;;;;;14.00;2.92;;;3.80;99.90;;;;;;5115790;27;21525;-71
2024/01/14 00:21:49;;;;;;;18.50;3.10;;;3.80;99.90;;;;;;5120366;27;20123;-71
2024/01/14 00:24:15;;;;;;;19.05;3.40;;;3.80;99.90;;;;;;5116677;27;20488;-71
2024/01/14 00:26:41;;;;;;;16.33;3.38;;;3.90;99.90;;;;;;5109193;27;20062;-71
2024/01/14 00:29:07;;;;;;;18.85;3.40;;;3.80;99.90;;;;;;5115175;27;21056;-71
2024/01/14 00:31:33;;;;;;;16.30;2.72;;;3.90;99.90;;;;;;5122447;27;20555;-71
2024/01/14 00:33:58;;;;;;;14.07;2.83;;;3.90;99.90;;;;;;5124953;27;20046;-71
2024/01/14 00:36:24;;;;;;;13.98;3.10;;;3.90;99.90;;;;;;5116108;27;20039;-71
2024/01/14 00:38:50;;;;;;;15.50;2.92;;;4.00;99.90;;;;;;5116259;27;20963;-71
2024/01/14 00:41:16;;;;;;;16.88;3.13;;;4.00;99.90;;;;;;5119268;27;20043;-70
2024/01/14 00:43:43;;;;;;;14.00;2.15;;;4.00;99.90;;;;;;5107742;27;20055;-71
2024/01/14 00:46:09;;;;;;;11.50;2.28;;;4.00;99.90;;;;;;5120195;27;20109;-71
2024/01/14 00:48:35;;;;;;;16.40;2.75;;;4.10;99.90;;;;;;5117028;27;20050;-71
2024/01/14 00:51:01;;;;;;;15.90;2.70;;;4.10;99.90;;;;;;5117807;27;20382;-80
2024/01/14 00:53:26;;;;;;;18.20;2.80;;;4.10;99.90;;;;;;5109432;27;20039;-79
2024/01/14 00:55:52;;;;;;;12.55;2.45;;;4.10;99.90;;;;;;5111905;27;20078;-79
2024/01/14 00:58:18;;;;;;;15.48;3.03;;;4.10;99.90;;;;;;5101023;27;20985;-80
2024/01/14 01:00:44;;;;;;;13.38;2.60;;;4.00;99.90;;;;;;5121973;27;20100;-80
2024/01/14 01:03:10;;;;;;;22.13;3.00;;;4.00;99.90;;;;;;5113191;27;20030;-71
2024/01/14 01:05:35;;;;;;;12.82;2.33;;;4.10;99.90;;;;;;5121361;27;20556;-71
2024/01/14 01:08:02;;;;;;;15.00;2.65;;;4.00;99.90;;;;;;5109997;27;20079;-71
2024/01/14 01:10:27;;;;;;;12.68;2.53;;;4.10;99.90;;;;;;5094615;27;20082;-71
2024/01/14 01:12:53;;;;;;;14.48;2.70;;;4.10;99.90;;;;;;5105635;27;20489;-71
2024/01/14 01:15:20;;;;;;;10.93;2.15;;;4.10;99.90;;;;;;5114702;27;20116;-71
2024/01/14 01:17:46;;;;;;;16.05;2.75;;;4.10;99.90;;;;;;5125621;27;20043;-71
2024/01/14 01:20:11;;;;;;;16.00;2.42;;;4.10;99.90;;;;;;5115320;27;20046;-71
2024/01/14 01:22:37;;;;;;;13.13;2.72;;;4.10;99.90;;;;;;5113519;27;20049;-71
2024/01/14 01:25:03;;;;;;;18.85;2.72;;;4.10;99.90;;;;;;5112148;27;20053;-71
2024/01/14 01:27:29;;;;;;;12.65;2.80;;;4.10;99.90;;;;;;5116440;27;20382;-71
2024/01/14 01:29:58;;;;;;;10.70;2.38;;;4.00;99.90;;;;;;5120654;27;20047;-71
2024/01/14 01:32:24;;;;;;;15.27;3.35;;;4.10;99.90;;;;;;5122206;27;20034;-72
2024/01/14 01:34:50;;;;;;;12.82;2.80;;;4.00;99.90;;;;;;5128480;27;20042;-71
2024/01/14 01:37:15;;;;;;;10.30;2.58;;;4.10;99.90;;;;;;5120658;27;20051;-71
2024/01/14 01:39:41;;;;;;;11.70;2.15;;;4.00;99.90;;;;;;5110062;27;20050;-71
2024/01/14 01:42:07;;;;;;;15.32;2.30;;;4.00;99.90;;;;;;5112581;27;20138;-71
2024/01/14 01:44:33;;;;;;;12.95;2.70;;;4.10;99.90;;;;;;5123310;27;20053;-71
2024/01/14 01:47:00;;;;;;;14.88;2.50;;;4.10;99.90;;;;;;5106122;27;20038;-71
2024/01/14 01:49:30;;;;;;;17.90;2.70;;;4.10;99.90;;;;;;5118585;27;20389;-79
2024/01/14 01:52:00;;;;;;;13.95;2.17;;;4.20;99.90;;;;;;5113378;27;20035;-79
2024/01/14 01:54:28;;;;;;;12.52;2.08;;;4.20;99.90;;;;;;5113900;27;20063;-71
2024/01/14 01:56:55;;;;;;;11.88;2.25;;;4.20;99.90;;;;;;5096728;27;20059;-79
2024/01/14 01:59:21;;;;;;;17.88;2.58;;;4.20;99.90;;;;;;5120557;27;20039;-79
2024/01/14 02:01:48;;;;;;;14.77;2.17;;;4.10;99.90;;;;;;5120781;27;20193;-79
2024/01/14 02:04:14;;;;;;;19.17;2.58;;;4.10;99.90;;;;;;5094265;27;20429;-78
2024/01/14 02:06:41;;;;;;;15.50;2.50;;;4.10;99.90;;;;;;5127195;27;20054;-78
2024/01/14 02:09:10;;;;;;;14.18;2.28;;;4.00;99.90;;;;;;5117646;27;20496;-79
2024/01/14 02:11:37;;;;;;;13.15;2.53;;;4.00;99.90;;;;;;5115907;27;20114;-79
2024/01/14 02:14:03;;;;;;;17.77;3.10;;;3.90;99.90;;;;;;5108884;27;20122;-78
2024/01/14 02:16:29;;;;;;;10.75;2.55;;;3.90;99.90;;;;;;5117578;27;20412;-78
2024/01/14 02:18:54;;;;;;;16.88;2.53;;;3.90;99.90;;;;;;5105652;27;20034;-79
2024/01/14 02:21:23;;;;;;;17.73;2.78;;;3.80;99.90;;;;;;5122564;27;20110;-78
2024/01/14 02:24:22;;;;;;;17.90;2.67;;;3.70;99.90;;;;;;5098292;27;20046;-79
2024/01/14 02:26:48;;;;;;;12.27;2.67;;;3.70;99.90;;;;;;5125924;27;20123;-79
2024/01/14 02:29:14;;;;;;;17.88;2.80;;;3.70;99.90;;;;;;5108476;27;20125;-80
2024/01/14 02:31:39;;;;;;;18.23;2.90;;;3.70;99.90;;;;;;5123543;27;20049;-79
2024/01/14 02:34:06;;;;;;;17.30;2.60;;;3.60;99.90;;;;;;5120713;27;20046;-79
2024/01/14 02:36:33;;;;;;;18.85;3.20;;;3.60;99.90;;;;;;5115664;27;20042;-79
2024/01/14 02:38:59;;;;;;;17.40;2.95;;;3.60;99.90;;;;;;5120050;27;20041;-79
2024/01/14 02:41:25;;;;;;;21.27;3.15;;;3.60;99.90;;;;;;5121637;27;20034;-79
2024/01/14 02:43:50;;;;;;;14.50;2.83;;;3.50;99.90;;;;;;5116411;27;20050;-72
2024/01/14 02:46:16;;;;;;;11.23;2.20;;;3.60;99.90;;;;;;5126561;27;20485;-72
2024/01/14 02:48:42;;;;;;;17.10;2.63;;;3.50;99.90;;;;;;5123956;27;20047;-72
2024/01/14 02:51:07;;;;;;;21.48;2.70;;;3.30;99.90;;;;;;5125608;27;20054;-72
2024/01/14 02:53:33;;;;;;;20.65;3.05;;;3.40;99.90;;;;;;5113110;27;20512;-72
2024/01/14 02:55:59;;;;;;;21.15;2.97;;;3.50;99.90;;;;;;5110705;27;20038;-72
2024/01/14 02:58:25;;;;;;;17.85;3.22;;;3.40;99.90;;;;;;5102047;27;20035;-72
2024/01/14 03:00:50;;;;;;;22.58;2.97;;;3.30;99.90;;;;;;5101290;27;20339;-72
2024/01/14 03:03:16;;;;;;;26.17;3.13;;;3.30;99.90;;;;;;5119147;27;20524;-72
2024/01/14 03:05:42;;;;;;;13.05;2.45;;;3.30;99.90;;;;;;5136941;27;20141;-72
2024/01/14 03:08:09;;;;;;;16.00;2.75;;;3.40;99.90;;;;;;5128035;27;20055;-72
2024/01/14 03:10:34;;;;;;;21.00;3.15;;;3.40;99.90;;;;;;5134964;27;20034;-71
2024/01/14 03:13:00;;;;;;;19.95;3.45;;;3.40;99.90;;;;;;5109049;27;20515;-78
2024/01/14 03:15:26;;;;;;;18.88;3.50;;;3.40;99.90;;;;;;5125390;27;20045;-78
2024/01/14 03:17:52;;;;;;;15.20;3.20;;;3.40;99.90;;;;;;5128037;27;20047;-77
2024/01/14 03:20:18;;;;;;;17.13;3.30;;;3.40;99.90;;;;;;5128182;27;20121;-78
2024/01/14 03:22:43;;;;;;;27.58;3.35;;;3.40;99.90;;;;;;5123861;27;20072;-71
2024/01/14 03:25:09;;;;;;;18.90;3.25;;;3.40;99.90;;;;;;5128091;27;20191;-72
2024/01/14 03:27:35;;;;;;;17.33;3.05;;;3.40;99.90;;;;;;5115113;27;20117;-72
2024/01/14 03:30:02;;;;;;;20.48;3.17;;;3.40;99.90;;;;;;5131725;27;20054;-72
2024/01/14 03:32:28;;;;;;;26.33;3.78;;;3.40;99.90;;;;;;5112833;27;20062;-72
2024/01/14 03:34:53;;;;;;;16.85;3.92;;;3.40;99.90;;;;;;5131735;27;20071;-72
2024/01/14 03:37:19;;;;;;;20.83;3.05;;;3.40;99.90;;;;;;5138748;27;20038;-72
2024/01/14 03:39:49;;;;;;;20.50;3.05;;;3.40;99.90;;;;;;5120206;27;20815;-72
2024/01/14 03:42:15;;;;;;;16.50;2.85;;;3.40;99.90;;;;;;5127394;27;20400;-72
2024/01/14 03:44:44;;;;;;;21.27;3.55;;;3.50;99.90;;;;;;5128192;27;20046;-72
2024/01/14 03:47:10;;;;;;;22.25;3.67;;;3.40;99.90;;;;;;5116408;27;20733;-72
2024/01/14 03:49:35;;;;;;;19.02;3.40;;;3.40;99.90;;;;;;5120801;27;20063;-72
2024/01/14 03:52:01;;;;;;;17.45;2.72;;;3.30;99.90;;;;;;5120653;27;20038;-72
2024/01/14 03:54:27;;;;;;;20.02;3.38;;;3.30;99.90;;;;;;5120199;27;20031;-72
2024/01/14 03:56:53;;;;;;;16.73;2.97;;;3.30;99.90;;;;;;5128688;27;20042;-72
2024/01/14 03:59:18;;;;;;;13.63;2.67;;;3.30;99.90;;;;;;5110997;27;20091;-72
2024/01/14 04:01:44;;;;;;;15.25;3.10;;;3.30;99.90;;;;;;5118464;27;20035;-72
2024/01/14 04:04:10;;;;;;;13.65;2.47;;;3.30;99.90;;;;;;5127252;27;20042;-72
2024/01/14 04:06:35;;;;;;;20.63;3.25;;;3.30;99.90;;;;;;5120277;27;20047;-72
2024/01/14 04:09:01;;;;;;;16.50;2.75;;;3.40;99.90;;;;;;5098452;27;20062;-72
2024/01/14 04:11:27;;;;;;;17.05;3.08;;;3.30;99.90;;;;;;5108747;27;20054;-72
2024/01/14 04:13:53;;;;;;;21.15;3.60;;;3.30;99.90;;;;;;5114696;27;20122;-72
2024/01/14 04:16:19;;;;;;;20.88;3.00;;;3.30;99.90;;;;;;5123519;27;20042;-72
2024/01/14 04:18:45;;;;;;;17.67;3.20;;;3.30;99.90;;;;;;5128191;27;20150;-72
2024/01/14 04:21:24;;;;;;;21.63;3.47;;;3.30;99.90;;;;;;5123369;27;20043;-72
2024/01/14 04:23:53;;;;;;;24.10;3.30;;;3.20;99.90;;;;;;5121466;27;20046;-72
2024/01/14 04:26:20;;;;;;;19.13;3.40;;;3.20;99.90;;;;;;5114084;27;20051;-72
2024/01/14 04:28:47;;;;;;;21.20;3.55;;;3.20;99.90;;;;;;5123675;27;20411;-72
2024/01/14 04:31:13;;;;;;;19.38;2.97;;;3.20;99.90;;;;;;5119049;27;20118;-72
2024/01/14 04:33:39;;;;;;;22.48;3.65;;;3.20;99.90;;;;;;5124553;27;20047;-72
2024/01/14 04:36:05;;;;;;;22.52;3.58;;;3.20;99.90;;;;;;5124940;27;20060;-72
2024/01/14 04:38:31;;;;;;;19.40;3.05;;;3.30;99.90;;;;;;5117532;27;20051;-72
2024/01/14 04:40:57;;;;;;;20.23;3.78;;;3.20;99.90;;;;;;5129014;27;20081;-72
2024/01/14 04:43:23;;;;;;;31.17;4.40;;;3.30;99.90;;;;;;5124727;27;20221;-72
2024/01/14 04:45:49;;;;;;;21.48;4.38;;;3.30;99.90;;;;;;5125168;27;20129;-72
2024/01/14 04:48:14;;;;;;;18.58;3.78;;;3.30;99.90;;;;;;5109094;27;20039;-72
2024/01/14 04:50:40;;;;;;;23.83;3.50;;;3.30;99.90;;;;;;5106867;27;20038;-72
2024/01/14 04:53:06;;;;;;;22.15;3.17;;;3.30;99.90;;;;;;5119622;27;20047;-72
2024/01/14 04:55:32;;;;;;;20.45;2.92;;;3.30;99.90;;;;;;5122474;27;20042;-72
2024/01/14 04:57:58;;;;;;;23.67;4.07;;;3.30;99.90;;;;;;5097469;27;20047;-72
2024/01/14 05:00:25;;;;;;;22.65;2.75;;;3.30;99.90;;;;;;5119977;27;20079;-72
2024/01/14 05:02:51;;;;;;;18.10;3.00;;;3.30;99.90;;;;;;5120223;27;20070;-72
2024/01/14 05:05:17;;;;;;;19.25;3.30;;;3.30;99.90;;;;;;5099060;27;20494;-72
2024/01/14 05:07:43;;;;;;;18.25;2.67;;;3.30;99.90;;;;;;5121035;27;20053;-72
2024/01/14 05:10:09;;;;;;;22.48;3.50;;;3.10;99.90;;;;;;5114135;27;20515;-78
2024/01/14 05:12:35;;;;;;;19.90;2.92;;;3.10;99.90;;;;;;5131202;27;20074;-79
2024/01/14 05:15:00;;;;;;;17.90;3.15;;;3.10;99.90;;;;;;5128326;27;20118;-79
2024/01/14 05:17:26;;;;;;;16.88;3.25;;;3.10;99.90;;;;;;5119134;27;20075;-79
2024/01/14 05:19:53;;;;;;;15.73;2.40;;;3.00;99.90;;;;;;5123827;27;20489;-79
2024/01/14 05:22:19;;;;;;;23.40;3.30;;;3.10;99.90;;;;;;5113493;27;20038;-79
2024/01/14 05:24:45;;;;;;;15.05;2.53;;;3.00;99.90;;;;;;5099541;27;20046;-79
2024/01/14 05:27:12;;;;;;;15.85;2.88;;;3.00;99.90;;;;;;5109842;27;20046;-79
2024/01/14 05:29:41;;;;;;;16.38;3.25;;;3.00;99.90;;;;;;5106323;27;20155;-78
2024/01/14 05:32:10;;;;;;;16.73;3.50;;;2.90;99.90;;;;;;5120540;27;20054;-72
2024/01/14 05:34:36;;;;;;;19.90;2.97;;;2.90;99.90;;;;;;5128535;27;20279;-72
2024/01/14 05:37:01;;;;;;;19.10;2.72;;;2.90;99.90;;;;;;5131217;27;20073;-72
2024/01/14 05:39:27;;;;;;;14.23;2.38;;;2.90;99.90;;;;;;5120860;27;20062;-72
2024/01/14 05:41:53;;;;;;;13.40;2.35;;;2.90;99.90;;;;;;5133922;27;20334;-72
2024/01/14 05:44:19;;;;;;;18.48;3.13;;;2.90;99.90;;;;;;5109353;27;20505;-72
2024/01/14 05:46:45;;;;;;;13.50;2.65;;;2.80;99.90;;;;;;5111468;27;20038;-71
2024/01/14 05:49:10;;;;;;;13.65;2.30;;;2.80;99.90;;;;;;5136838;27;20043;-71
2024/01/14 05:51:37;;;;;;;14.63;2.28;;;2.80;99.90;;;;;;5125390;27;20034;-71
2024/01/14 05:54:05;;;;;;;18.42;3.05;;;2.80;99.90;;;;;;5124734;27;20528;-72
2024/01/14 05:56:31;;;;;;;13.93;2.97;;;2.80;99.90;;;;;;5119195;27;20047;-72
2024/01/14 05:58:57;;;;;;;18.63;3.78;;;2.80;99.90;;;;;;5122445;27;20050;-73
2024/01/14 06:01:23;;;;;;;17.50;3.33;;;2.80;99.90;;;;;;5125752;27;20039;-72
2024/01/14 06:03:48;;;;;;;13.73;3.08;;;2.90;99.90;;;;;;5110180;27;20224;-72
2024/01/14 06:06:14;;;;;;;15.52;2.80;;;2.80;99.90;;;;;;5124911;27;20030;-72
2024/01/14 06:08:44;;;;;;;13.20;2.40;;;2.90;99.90;;;;;;5117505;27;20497;-72
2024/01/14 06:11:10;;;;;;;15.25;2.95;;;2.90;99.90;;;;;;5133534;27;20519;-72
2024/01/14 06:13:36;;;;;;;16.55;2.72;;;3.00;99.90;;;;;;5130095;27;20046;-72
2024/01/14 06:16:02;;;;;;;13.13;2.00;;;3.00;99.90;;;;;;5126208;27;20493;-72
2024/01/14 06:18:28;;;;;;;16.02;2.65;;;3.00;99.90;;;;;;5116744;27;20079;-79
2024/01/14 06:21:00;;;;;;;14.40;2.95;;;3.10;99.90;;;;;;5110872;27;20055;-79
2024/01/14 06:23:29;;;;;;;12.35;2.30;;;3.10;99.90;;;;;;5125876;27;20521;-79
2024/01/14 06:25:58;;;;;;;11.38;2.10;;;3.10;99.90;;;;;;5133307;27;20047;-79
2024/01/14 06:28:24;;;;;;;19.13;2.90;;;3.10;99.90;;;;;;5134004;27;20042;-79
2024/01/14 06:30:49;;;;;;;14.50;2.25;;;3.10;99.90;;;;;;5111498;27;20043;-79
2024/01/14 06:33:15;;;;;;;10.77;1.83;;;3.10;99.90;;;;;;5135059;27;20046;-79
2024/01/14 06:35:41;;;;;;;11.18;2.28;;;3.00;99.90;;;;;;5103166;27;20042;-79
2024/01/14 06:38:10;;;;;;;17.48;2.67;;;3.10;99.90;;;;;;5128877;27;20073;-79
2024/01/14 06:40:36;;;;;;;12.75;2.28;;;3.10;99.90;;;;;;5124349;27;20042;-79
2024/01/14 06:43:02;;;;;;;20.48;2.97;;;3.10;99.90;;;;;;5113162;27;20038;-79
2024/01/14 06:45:28;;;;;;;12.60;2.40;;;3.10;99.90;;;;;;5129612;27;20043;-79
2024/01/14 06:47:54;;;;;;;15.93;2.35;;;3.20;99.90;;;;;;5133784;27;20364;-79
2024/01/14 06:50:20;;;;;;;16.00;2.38;;;3.10;99.90;;;;;;5113064;27;20046;-72
2024/01/14 06:52:46;;;;;;;14.60;2.72;;;3.10;99.90;;;;;;5124831;27;20411;-71
2024/01/14 06:55:13;;;;;;;15.65;2.47;;;3.00;99.90;;;;;;5120836;27;20055;-70
2024/01/14 06:57:38;;;;;;;15.15;2.55;;;3.10;99.90;;;;;;5122118;27;20398;-71
2024/01/14 07:00:05;;;;;;;15.93;2.78;;;3.00;99.90;;;;;;5122126;27;20046;-71
2024/01/14 07:02:31;;;;;;;13.55;2.38;;;3.00;99.90;;;;;;5129025;27;20179;-70
2024/01/14 07:04:57;;;;;;;14.90;2.17;;;2.90;99.90;;;;;;5121660;27;20042;-71
2024/01/14 07:07:23;;;;;;;15.15;2.78;;;2.90;99.90;;;;;;5115052;27;20118;-70
2024/01/14 07:09:49;;;;;;;13.88;2.45;;;2.90;99.90;;;;;;5122012;27;20039;-71
2024/01/14 07:12:14;;;;;;;15.63;2.40;;;2.80;99.90;;;;;;5130240;27;20057;-72
2024/01/14 07:14:40;;;;;;;14.80;2.38;;;2.80;99.90;;;;;;5124275;27;20331;-72
2024/01/14 07:17:07;;;;;;;14.32;2.17;;;2.70;99.90;;;;;;5129942;27;20046;-72
2024/01/14 07:19:35;;;;;;;12.60;2.30;;;2.70;99.90;;;;;;5122111;27;20480;-73
2024/01/14 07:22:01;;;;;;;15.38;2.20;;;2.70;99.90;;;;;;5136319;27;20745;-72
2024/01/14 07:24:26;;;;;;;14.00;2.42;;;2.70;99.90;;;;;;5118889;27;20545;-73
2024/01/14 07:26:52;;;;;;;13.40;1.95;;;2.70;99.90;;;;;;5135730;27;20046;-72
2024/01/14 07:29:18;;;;;;;13.05;2.08;;;2.70;99.90;;;;;;5120727;27;20042;-72
2024/01/14 07:31:44;;;;;;;12.27;2.10;;;2.70;99.90;;;;;;5130890;27;20422;-72
2024/01/14 07:34:09;;;;;;;14.10;2.33;;;2.60;99.90;;;;;;5131714;27;20552;-71
2024/01/14 07:36:35;;;;;;;21.02;2.85;;;2.70;99.90;;;;;;5138088;27;20040;-78
2024/01/14 07:39:03;;;;;;;14.13;2.17;;;2.70;99.90;;;;;;5097318;27;20059;-72
2024/01/14 07:41:28;;;;;;;13.35;2.22;;;2.70;99.90;;;;;;5135943;27;20442;-72
2024/01/14 07:43:54;;;;;;;16.08;2.13;;;2.70;99.90;;;;;;5131817;27;20045;-71
2024/01/14 07:46:20;;;;;;;16.02;2.90;;;2.70;99.90;;;;;;5130506;27;20047;-70
2024/01/14 07:48:46;;;;;;;16.98;2.25;;;2.80;99.90;;;;;;5106728;27;20047;-78
2024/01/14 07:51:12;;;;;;;14.32;2.00;;;2.80;99.90;;;;;;5128745;27;20042;-78
2024/01/14 07:53:38;;;;;;;14.55;2.35;;;2.90;99.90;;;;;;5121051;27;20043;-78
2024/01/14 07:56:04;;;;;;;11.40;2.40;;;3.00;99.90;;;;;;5107164;27;20504;-79
2024/01/14 07:58:30;;;;;;;11.98;2.13;;;3.00;99.90;;;;;;5119579;27;20027;-79
2024/01/14 08:00:56;;;;;;;17.38;2.17;;;3.00;99.90;;;;;;5145925;27;20046;-79
2024/01/14 08:03:22;;;;;;;16.38;1.90;;;3.10;99.90;;;;;;5128328;27;20421;-71
2024/01/14 08:05:48;;;;;;;10.15;1.83;;;3.20;99.90;;;;;;5129962;27;20065;-71
2024/01/14 08:08:13;;;;;;;14.98;2.30;;;3.10;99.90;;;;;;5112735;27;20500;-71
2024/01/14 08:10:39;;;;;;;15.80;2.28;;;3.20;99.90;;;;;;5134243;27;20041;-71
2024/01/14 08:13:05;;;;;;;11.40;2.15;;;3.20;99.90;;;;;;5123223;27;20118;-71
2024/01/14 08:15:31;;;;;;;13.60;1.90;;;3.20;99.90;;;;;;5150493;27;20047;-79
2024/01/14 08:17:56;;;;;;;11.65;2.00;;;3.20;99.90;;;;;;5133084;27;20046;-78
2024/01/14 08:20:25;;;;;;;15.43;2.22;;;3.20;99.90;;;;;;5125025;27;20523;-79
2024/01/14 08:22:53;;;;;;;9.73;2.15;;;3.20;99.90;;;;;;5130579;27;20046;-79
2024/01/14 08:25:19;;;;;;;11.23;1.83;;;3.20;99.90;;;;;;5130292;27;20564;-79
2024/01/14 08:27:45;;;;;;;12.38;2.38;;;3.30;99.90;;;;;;5117540;27;20087;-79
2024/01/14 08:30:12;;;;;;;13.73;2.20;;;3.30;99.90;;;;;;5137077;27;20046;-71
2024/01/14 08:32:38;;;;;;;12.32;2.00;;;3.30;99.90;;;;;;5127315;27;20051;-71
2024/01/14 08:35:04;;;;;;;17.08;2.88;;;3.30;99.90;;;;;;5131821;27;20057;-72
2024/01/14 08:37:30;;;;;;;10.57;2.10;;;3.30;99.90;;;;;;5129493;27;20035;-71
2024/01/14 08:39:56;;;;;;;15.13;2.10;;;3.30;99.90;;;;;;5121744;27;20049;-71
2024/01/14 08:42:22;;;;;;;9.82;1.95;;;3.30;99.90;;;;;;5126353;27;20050;-70
2024/01/14 08:44:48;;;;;;;11.23;2.10;;;3.30;99.90;;;;;;5131336;27;20054;-70
2024/01/14 08:47:14;;;;;;;12.77;2.03;;;3.20;99.90;;;;;;5112020;27;20460;-71
2024/01/14 08:49:40;;;;;;;14.90;2.30;;;3.20;99.90;;;;;;5100916;27;20122;-70
2024/01/14 08:52:11;;;;;;;15.82;2.40;;;3.20;99.90;;;;;;5123801;27;20134;-70
2024/01/14 08:54:39;;;;;;;15.27;2.45;;;3.20;99.90;;;;;;5129123;27;20060;-70
2024/01/14 08:57:07;;;;;;;11.00;2.70;;;3.30;99.90;;;;;;5118978;27;20122;-72
2024/01/14 08:59:33;;;;;;;11.80;1.67;;;3.20;99.90;;;;;;5128889;27;20098;-72
2024/01/14 09:02:02;;;;;;;14.40;2.47;;;3.30;99.90;;;;;;5128724;27;20405;-72
2024/01/14 09:04:29;;;;;;;11.03;2.17;;;3.30;99.90;;;;;;5116869;27;20042;-73
2024/01/14 09:06:58;;;;;;;10.52;1.80;;;3.30;99.90;;;;;;5124358;27;20284;-70
2024/01/14 09:09:24;;;;;;;15.55;2.17;;;3.30;99.90;;;;;;5123895;27;20082;-70
2024/01/14 09:11:49;;;;;;;11.55;2.53;;;3.30;99.90;;;;;;5129560;27;20453;-70
2024/01/14 09:14:15;;;;;;;11.77;2.28;;;3.30;99.90;;;;;;5128289;27;20484;-72
2024/01/14 09:16:41;;;;;;;13.98;1.90;;;3.30;99.90;;;;;;5127669;27;20453;-70
2024/01/14 09:19:07;;;;;;;8.57;1.77;;;3.30;99.90;;;;;;5123146;27;20382;-71
2024/01/14 09:21:33;;;;;;;12.82;2.33;;;3.40;99.90;;;;;;5120749;27;20042;-71
2024/01/14 09:23:59;;;;;;;14.52;1.92;;;3.40;99.90;;;;;;5108675;27;20035;-71
2024/01/14 09:26:24;;;;;;;9.95;2.00;;;3.40;99.90;;;;;;5129909;27;20077;-71
2024/01/14 09:28:50;;;;;;;10.32;1.90;;;3.40;99.90;;;;;;5127119;27;20524;-78
2024/01/14 09:31:16;;;;;;;11.70;2.15;;;3.40;99.90;;;;;;5122241;27;20092;-78
2024/01/14 09:33:44;;;;;;;14.38;2.75;;;3.40;99.90;;;;;;5131181;27;20099;-71
2024/01/14 09:36:10;;;;;;;12.43;1.98;;;3.40;99.90;;;;;;5125996;27;20047;-71
2024/01/14 09:38:37;;;;;;;9.35;1.77;;;3.50;99.90;;;;;;5128885;27;20038;-71
2024/01/14 09:41:24;;;;;;;11.27;2.03;;;3.50;99.90;;;;;;5109769;27;20095;-70
2024/01/14 09:43:51;;;;;;;11.73;1.90;;;3.60;99.90;;;;;;5125890;27;20042;-71
2024/01/14 09:46:18;;;;;;;13.45;2.30;;;3.70;99.90;;;;;;5110297;27;20476;-71
2024/01/14 09:48:46;;;;;;;10.85;1.77;;;3.80;99.90;;;;;;5111322;27;20049;-71
2024/01/14 09:51:14;;;;;;;8.10;2.22;;;3.80;99.90;;;;;;5127981;27;20042;-79
2024/01/14 09:53:41;;;;;;;8.00;1.48;;;3.90;99.90;;;;;;5131319;27;20069;-71
2024/01/14 09:56:10;;;;;;;9.77;1.80;;;3.90;99.90;;;;;;5122814;27;20074;-71
2024/01/14 09:58:39;;;;;;;9.68;1.95;;;3.90;99.90;;;;;;5132908;27;20042;-71
2024/01/14 10:01:08;;;;;;;8.02;1.45;;;3.90;99.90;;;;;;5116745;27;20051;-71
2024/01/14 10:03:34;;;;;;;9.82;1.85;;;4.00;99.90;;;;;;5135730;27;20101;-71
2024/01/14 10:06:01;;;;;;;9.30;1.60;;;4.00;99.90;;;;;;5138057;27;20043;-72
2024/01/14 10:08:28;;;;;;;7.53;1.50;;;4.00;99.90;;;;;;5126687;27;20054;-71
2024/01/14 10:10:54;;;;;;;7.97;1.45;;;4.00;99.90;;;;;;5127860;27;20125;-71
2024/01/14 10:13:22;;;;;;;12.30;1.98;;;4.00;99.90;;;;;;5123985;27;20118;-71
2024/01/14 10:15:49;;;;;;;6.13;1.20;;;3.90;99.90;;;;;;5124876;27;20034;-71
2024/01/14 10:18:17;;;;;;;7.95;1.58;;;4.00;99.90;;;;;;5129851;27;20049;-73
2024/01/14 10:20:46;;;;;;;6.97;1.40;;;4.00;99.90;;;;;;5126017;27;20100;-71
2024/01/14 10:23:12;;;;;;;6.43;1.20;;;4.10;99.90;;;;;;5125487;27;20095;-71
2024/01/14 10:25:38;;;;;;;7.28;1.13;;;4.00;99.90;;;;;;5113295;27;20051;-71
2024/01/14 10:28:04;;;;;;;7.53;1.38;;;4.00;99.90;;;;;;5127681;27;20575;-71
2024/01/14 10:30:30;;;;;;;8.43;1.33;;;4.10;99.90;;;;;;5115772;27;20556;-71
2024/01/14 10:32:56;;;;;;;4.97;1.15;;;4.10;99.90;;;;;;5115630;27;20141;-71
2024/01/14 10:35:24;;;;;;;5.50;1.10;;;4.10;99.90;;;;;;5119508;27;20054;-71
2024/01/14 10:37:50;;;;;;;8.07;1.25;;;4.20;99.90;;;;;;5120173;27;20034;-71
2024/01/14 10:40:17;;;;;;;4.57;1.33;;;4.30;99.90;;;;;;5120759;27;20046;-71
2024/01/14 10:42:44;;;;;;;4.25;1.08;;;4.30;99.90;;;;;;5117718;27;20038;-71
2024/01/14 10:45:10;;;;;;;4.05;1.30;;;4.30;99.90;;;;;;5114133;27;20119;-71
2024/01/14 10:47:36;;;;;;;6.22;1.60;;;4.30;99.90;;;;;;5126038;27;20081;-71
2024/01/14 10:50:03;;;;;;;5.60;1.50;;;4.40;99.90;;;;;;5131511;27;20038;-72
2024/01/14 10:52:33;;;;;;;4.93;2.10;;;4.40;99.90;;;;;;5097449;27;21230;-71
2024/01/14 10:55:15;;;;;;;7.13;2.22;;;4.40;99.90;;;;;;5122625;27;20047;-71
2024/01/14 10:57:44;;;;;;;6.20;2.35;;;4.40;99.90;;;;;;5121902;27;20035;-71
2024/01/14 11:00:14;;;;;;;7.32;2.00;;;4.40;99.90;;;;;;5114831;27;20081;-71
2024/01/14 11:02:41;;;;;;;7.05;2.30;;;4.40;99.90;;;;;;5100218;27;20497;-71
2024/01/14 11:05:08;;;;;;;8.40;2.40;;;4.40;99.90;;;;;;5120709;27;20452;-71
2024/01/14 11:07:34;;;;;;;10.75;2.83;;;4.30;99.90;;;;;;5122185;27;20046;-72
2024/01/14 11:10:10;;;;;;;7.30;2.60;;;4.40;99.90;;;;;;5131730;27;20043;-71
2024/01/14 11:13:01;;;;;;;7.03;2.50;;;4.40;99.90;;;;;;5127855;27;20506;-71
2024/01/14 11:15:32;;;;;;;7.93;2.83;;;4.40;99.90;;;;;;5121419;27;20046;-72
2024/01/14 11:18:06;;;;;;;7.80;2.30;;;4.40;99.90;;;;;;5106688;27;20417;-71
2024/01/14 11:20:36;;;;;;;8.90;2.42;;;4.50;99.90;;;;;;5120683;27;20135;-71
2024/01/14 11:23:02;;;;;;;8.75;2.42;;;4.60;99.90;;;;;;5114545;27;20125;-71
2024/01/14 11:25:33;;;;;;;11.07;2.60;;;4.60;99.90;;;;;;5120044;27;20549;-70
2024/01/14 11:28:00;;;;;;;7.90;2.33;;;4.70;99.90;;;;;;5103139;27;20477;-70
2024/01/14 11:30:59;;;;;;;8.70;2.20;;;4.70;99.90;;;;;;5121084;27;20492;-70
2024/01/14 11:33:40;;;;;;;7.88;1.98;;;4.70;99.90;;;;;;5128182;27;20051;-70
2024/01/14 11:36:07;;;;;;;7.90;2.17;;;4.70;99.90;;;;;;5129804;27;20051;-72
2024/01/14 11:38:35;;;;;;;8.15;1.80;;;4.70;99.90;;;;;;5115663;27;20043;-69
2024/01/14 11:41:23;;;;;;;7.40;1.75;;;4.70;99.90;;;;;;5120059;27;20053;-72
2024/01/14 11:43:51;;;;;;;10.45;1.90;;;4.70;99.90;;;;;;5098741;27;20066;-71
2024/01/14 11:46:36;;;;;;;7.20;1.50;;;4.80;99.90;;;;;;5116026;27;20043;-71
2024/01/14 11:49:06;;;;;;;4.95;1.58;;;4.80;99.90;;;;;;5118132;27;20084;-72
2024/01/14 11:51:32;;;;;;;6.47;1.42;;;4.80;99.90;;;;;;5118175;27;20058;-71
2024/01/14 11:53:59;;;;;;;7.40;1.60;;;4.80;99.90;;;;;;5112547;27;20034;-71
2024/01/14 11:56:29;;;;;;;9.60;1.50;;;4.80;99.90;;;;;;5115564;27;20043;-71
2024/01/14 11:58:58;;;;;;;7.25;1.50;;;4.80;99.90;;;;;;5114072;27;20125;-71
2024/01/14 12:01:26;;;;;;;6.45;1.50;;;4.90;99.90;;;;;;5116231;27;20047;-71
2024/01/14 12:04:08;;;;;;;8.27;1.30;;;4.90;99.90;;;;;;5101236;27;20041;-71
2024/01/14 12:06:50;;;;;;;6.10;1.02;;;4.90;99.90;;;;;;5122699;27;20039;-71
2024/01/14 12:09:17;;;;;;;5.05;1.30;;;4.90;99.90;;;;;;5112522;27;20236;-71
2024/01/14 12:11:43;;;;;;;5.85;1.25;;;4.90;99.90;;;;;;5112858;27;20039;-71
2024/01/14 12:14:10;;;;;;;5.95;1.15;;;4.90;99.90;;;;;;5109908;27;20175;-71
2024/01/14 12:16:38;;;;;;;4.32;0.98;;;4.90;99.90;;;;;;5115743;27;20127;-71
2024/01/14 12:19:18;;;;;;;6.55;1.25;;;4.90;99.90;;;;;;5114841;27;20492;-71
2024/01/14 12:21:44;;;;;;;2.25;0.60;;;4.90;99.90;;;;;;5118520;27;20043;-71
2024/01/14 12:24:11;;;;;;;3.42;0.82;;;4.90;99.90;;;;;;5133284;27;20034;-71
2024/01/14 12:26:37;;;;;;;5.13;1.05;;;4.80;99.90;;;;;;5121740;27;20039;-71
2024/01/14 12:29:04;;;;;;;6.15;1.20;;;4.80;99.90;;;;;;5124841;27;20425;-70
2024/01/14 12:31:34;;;;;;;6.47;2.10;;;4.80;99.90;;;;;;5119055;27;20474;-70
2024/01/14 12:34:05;;;;;;;7.50;2.80;;;4.70;99.90;;;;;;5110867;27;20042;-71
2024/01/14 12:36:33;;;;;;;9.05;3.08;;;4.70;99.90;;;;;;5112111;27;20391;-71
2024/01/14 12:38:59;;;;;;;7.75;3.67;;;4.80;99.90;;;;;;5102423;27;20062;-71
2024/01/14 12:41:25;;;;;;;8.98;4.15;;;4.80;99.90;;;;;;5123139;27;20501;-70
2024/01/14 12:43:50;;;;;;;9.45;4.90;;;4.90;99.90;;;;;;5113835;27;20121;-71
2024/01/14 12:46:18;;;;;;;10.60;5.07;;;4.80;99.90;;;;;;5123338;27;20062;-70
2024/01/14 12:48:44;;;;;;;9.45;5.32;;;4.80;99.90;;;;;;5119352;27;20042;-70